createdAt,value
2023-12-11T00:01:17.113Z,2.11
2023-12-11T00:16:19.563Z,2.12
2023-12-11T00:31:21.718Z,2.23
2023-12-11T00:46:24.347Z,2.28
2023-12-11T01:01:26.447Z,2.36
2023-12-11T01:16:28.551Z,2.54
2023-12-11T01:31:30.716Z,2.60
2023-12-11T01:46:33.606Z,2.71
2023-12-11T02:01:37.062Z,2.76
2023-12-11T02:16:39.240Z,2.83
2023-12-11T02:31:41.659Z,2.87
2023-12-11T02:46:43.786Z,2.87
2023-12-11T03:01:46.094Z,2.95
2023-12-11T03:16:51.274Z,2.92
2023-12-11T03:31:53.298Z,2.95
2023-12-11T03:46:55.280Z,2.92
2023-12-11T04:01:57.517Z,2.95
2023-12-11T04:16:59.653Z,2.97
2023-12-11T04:32:02.193Z,2.87
2023-12-11T04:47:04.884Z,2.84
2023-12-11T05:02:06.914Z,2.84
2023-12-11T05:17:08.947Z,2.85
2023-12-11T05:32:15.557Z,2.94
2023-12-11T05:47:17.586Z,2.90
2023-12-11T06:02:19.735Z,2.88
2023-12-11T06:17:21.841Z,2.87
2023-12-11T06:32:24.338Z,2.88
2023-12-11T06:47:26.452Z,2.88
2023-12-11T07:02:28.626Z,2.97
2023-12-11T07:17:32.995Z,3.01
2023-12-11T07:32:36.395Z,3.02
2023-12-11T07:47:38.466Z,3.07
2023-12-11T08:02:40.590Z,3.13
2023-12-11T08:17:43.272Z,3.16
2023-12-11T08:32:45.368Z,3.23
2023-12-11T08:47:47.587Z,3.32
2023-12-11T09:02:50.420Z,3.30
2023-12-11T09:17:52.634Z,3.38
2023-12-11T09:32:54.811Z,3.43
2023-12-11T09:48:08.110Z,3.43
2023-12-11T10:03:14.336Z,3.52
2023-12-11T10:18:16.537Z,3.55
2023-12-11T10:33:20.223Z,3.60
2023-12-11T10:48:23.313Z,3.74
2023-12-11T11:03:26.532Z,3.77
2023-12-11T11:18:28.815Z,3.78
2023-12-11T11:33:48.268Z,3.97
2023-12-11T11:48:50.736Z,4.09
2023-12-11T12:03:52.911Z,4.05
2023-12-11T12:18:56.540Z,4.12
2023-12-11T12:33:59.433Z,4.22
2023-12-11T12:49:09.086Z,4.32
2023-12-11T13:04:12.759Z,4.36
2023-12-11T13:19:15.048Z,4.45
2023-12-11T13:34:18.063Z,4.62
2023-12-11T13:49:20.211Z,4.50
2023-12-11T14:04:22.325Z,4.33
2023-12-11T14:19:24.509Z,4.29
2023-12-11T14:34:26.722Z,4.32
2023-12-11T14:49:29.012Z,4.42
2023-12-11T15:04:31.188Z,4.39
2023-12-11T15:19:33.487Z,4.40
2023-12-11T15:34:35.718Z,4.38
2023-12-11T15:49:38.062Z,4.42
2023-12-11T16:04:40.213Z,4.42
2023-12-11T16:19:42.783Z,4.32
2023-12-11T16:34:44.896Z,4.42
2023-12-11T16:49:55.559Z,4.50
2023-12-11T17:05:05.979Z,4.59
2023-12-11T17:20:08.843Z,4.60
2023-12-11T17:35:11.178Z,4.65
2023-12-11T17:50:13.416Z,4.59
2023-12-11T18:05:17.630Z,4.55
2023-12-11T18:20:19.720Z,4.50
2023-12-11T18:35:21.826Z,4.52
2023-12-11T18:50:24.048Z,4.56
2023-12-11T19:05:26.542Z,4.56
2023-12-11T19:20:28.853Z,4.55
2023-12-11T19:35:31.335Z,4.45
2023-12-11T19:50:33.537Z,4.40
2023-12-11T20:05:35.575Z,4.45
2023-12-11T20:20:37.678Z,4.52
2023-12-11T20:35:40.045Z,4.55
2023-12-11T20:50:43.272Z,4.66
2023-12-11T21:05:45.396Z,4.73
2023-12-11T21:20:47.567Z,4.74
2023-12-11T21:35:49.657Z,4.74
2023-12-11T21:50:51.699Z,4.80
2023-12-11T22:05:54.019Z,4.80
2023-12-11T22:20:56.084Z,4.84
2023-12-11T22:35:58.028Z,4.86
2023-12-11T22:51:00.627Z,4.86
2023-12-11T23:06:03.150Z,4.84
2023-12-11T23:21:05.325Z,4.80
2023-12-11T23:36:08.052Z,4.79
2023-12-11T23:51:10.085Z,4.80
